sensor_id;sensor_type;location;lat;lon;timestamp;P1;durP1;ratioP1;P2;durP2;ratioP2
33268;SDS011;19640;50.944;5.260;2023-07-08T00:00:27;10.68;;;3.85;;
33268;SDS011;19640;50.944;5.260;2023-07-08T00:02:53;4.68;;;4.13;;
33268;SDS011;19640;50.944;5.260;2023-07-08T00:05:19;5.32;;;4.03;;
33268;SDS011;19640;50.944;5.260;2023-07-08T00:07:46;5.25;;;3.72;;
33268;SDS011;19640;50.944;5.260;2023-07-08T00:12:45;4.75;;;3.95;;
33268;SDS011;19640;50.944;5.260;2023-07-08T00:15:13;5.10;;;3.88;;
33268;SDS011;19640;50.944;5.260;2023-07-08T00:17:39;4.60;;;3.63;;
33268;SDS011;19640;50.944;5.260;2023-07-08T00:20:11;4.55;;;3.92;;
33268;SDS011;19640;50.944;5.260;2023-07-08T00:22:48;8.30;;;4.07;;
33268;SDS011;19640;50.944;5.260;2023-07-08T00:25:17;8.85;;;3.75;;
33268;SDS011;19640;50.944;5.260;2023-07-08T00:27:45;7.63;;;4.13;;
33268;SDS011;19640;50.944;5.260;2023-07-08T00:30:17;5.25;;;3.17;;
33268;SDS011;19640;50.944;5.260;2023-07-08T00:32:48;7.43;;;3.80;;
33268;SDS011;19640;50.944;5.260;2023-07-08T00:35:19;7.27;;;3.37;;
33268;SDS011;19640;50.944;5.260;2023-07-08T00:37:51;7.22;;;4.03;;
33268;SDS011;19640;50.944;5.260;2023-07-08T00:40:19;4.72;;;3.50;;
33268;SDS011;19640;50.944;5.260;2023-07-08T00:42:46;7.55;;;4.55;;
33268;SDS011;19640;50.944;5.260;2023-07-08T00:48:25;5.03;;;3.40;;
33268;SDS011;19640;50.944;5.260;2023-07-08T00:50:55;5.28;;;3.65;;
33268;SDS011;19640;50.944;5.260;2023-07-08T00:53:32;6.15;;;3.35;;
33268;SDS011;19640;50.944;5.260;2023-07-08T00:56:00;5.88;;;4.45;;
33268;SDS011;19640;50.944;5.260;2023-07-08T00:58:29;4.60;;;3.35;;
33268;SDS011;19640;50.944;5.260;2023-07-08T01:00:59;4.72;;;3.50;;
33268;SDS011;19640;50.944;5.260;2023-07-08T01:03:28;5.65;;;3.00;;
33268;SDS011;19640;50.944;5.260;2023-07-08T01:05:55;4.82;;;3.35;;
33268;SDS011;19640;50.944;5.260;2023-07-08T01:08:25;5.63;;;3.65;;
33268;SDS011;19640;50.944;5.260;2023-07-08T01:10:54;5.05;;;3.80;;
33268;SDS011;19640;50.944;5.260;2023-07-08T01:13:26;7.30;;;4.40;;
33268;SDS011;19640;50.944;5.260;2023-07-08T01:15:55;6.00;;;4.05;;
33268;SDS011;19640;50.944;5.260;2023-07-08T01:18:22;4.68;;;4.10;;
33268;SDS011;19640;50.944;5.260;2023-07-08T01:20:49;5.70;;;4.30;;
33268;SDS011;19640;50.944;5.260;2023-07-08T01:23:16;5.53;;;4.07;;
33268;SDS011;19640;50.944;5.260;2023-07-08T01:25:42;6.80;;;4.22;;
33268;SDS011;19640;50.944;5.260;2023-07-08T01:28:11;6.65;;;3.97;;
33268;SDS011;19640;50.944;5.260;2023-07-08T01:30:37;5.43;;;4.07;;
33268;SDS011;19640;50.944;5.260;2023-07-08T01:33:05;4.43;;;3.53;;
33268;SDS011;19640;50.944;5.260;2023-07-08T01:35:36;8.40;;;3.70;;
33268;SDS011;19640;50.944;5.260;2023-07-08T01:38:02;5.82;;;3.67;;
33268;SDS011;19640;50.944;5.260;2023-07-08T01:40:31;5.55;;;4.10;;
33268;SDS011;19640;50.944;5.260;2023-07-08T01:42:59;6.55;;;4.28;;
33268;SDS011;19640;50.944;5.260;2023-07-08T01:45:27;5.70;;;4.40;;
33268;SDS011;19640;50.944;5.260;2023-07-08T01:47:59;5.03;;;4.53;;
33268;SDS011;19640;50.944;5.260;2023-07-08T01:50:29;5.65;;;4.53;;
33268;SDS011;19640;50.944;5.260;2023-07-08T01:52:58;5.53;;;3.58;;
33268;SDS011;19640;50.944;5.260;2023-07-08T01:55:25;5.28;;;4.55;;
33268;SDS011;19640;50.944;5.260;2023-07-08T01:57:54;6.45;;;4.30;;
33268;SDS011;19640;50.944;5.260;2023-07-08T02:00:20;9.63;;;4.63;;
33268;SDS011;19640;50.944;5.260;2023-07-08T02:02:47;6.18;;;4.13;;
33268;SDS011;19640;50.944;5.260;2023-07-08T02:05:13;4.68;;;3.97;;
33268;SDS011;19640;50.944;5.260;2023-07-08T02:07:39;4.43;;;3.53;;
33268;SDS011;19640;50.944;5.260;2023-07-08T02:10:05;7.75;;;4.28;;
33268;SDS011;19640;50.944;5.260;2023-07-08T02:12:31;6.05;;;3.83;;
33268;SDS011;19640;50.944;5.260;2023-07-08T02:14:59;7.32;;;4.32;;
33268;SDS011;19640;50.944;5.260;2023-07-08T02:17:25;5.78;;;4.30;;
33268;SDS011;19640;50.944;5.260;2023-07-08T02:19:53;11.50;;;4.68;;
33268;SDS011;19640;50.944;5.260;2023-07-08T02:22:22;5.47;;;4.20;;
33268;SDS011;19640;50.944;5.260;2023-07-08T02:24:48;6.20;;;3.55;;
33268;SDS011;19640;50.944;5.260;2023-07-08T02:27:14;4.18;;;3.75;;
33268;SDS011;19640;50.944;5.260;2023-07-08T02:29:40;5.40;;;4.05;;
33268;SDS011;19640;50.944;5.260;2023-07-08T02:32:06;4.20;;;3.80;;
33268;SDS011;19640;50.944;5.260;2023-07-08T02:34:34;6.45;;;4.25;;
33268;SDS011;19640;50.944;5.260;2023-07-08T02:37:01;7.30;;;4.43;;
33268;SDS011;19640;50.944;5.260;2023-07-08T02:39:26;5.00;;;4.43;;
33268;SDS011;19640;50.944;5.260;2023-07-08T02:41:52;5.50;;;4.00;;
33268;SDS011;19640;50.944;5.260;2023-07-08T02:44:18;7.97;;;4.43;;
33268;SDS011;19640;50.944;5.260;2023-07-08T02:46:43;10.23;;;3.90;;
33268;SDS011;19640;50.944;5.260;2023-07-08T02:49:09;4.93;;;3.95;;
33268;SDS011;19640;50.944;5.260;2023-07-08T02:51:34;8.38;;;3.80;;
33268;SDS011;19640;50.944;5.260;2023-07-08T02:54:00;8.95;;;4.45;;
33268;SDS011;19640;50.944;5.260;2023-07-08T02:56:26;6.82;;;4.43;;
33268;SDS011;19640;50.944;5.260;2023-07-08T02:58:52;6.78;;;4.10;;
33268;SDS011;19640;50.944;5.260;2023-07-08T03:01:18;4.85;;;4.35;;
33268;SDS011;19640;50.944;5.260;2023-07-08T03:03:44;5.20;;;4.40;;
33268;SDS011;19640;50.944;5.260;2023-07-08T03:06:10;4.88;;;4.35;;
33268;SDS011;19640;50.944;5.260;2023-07-08T03:08:36;6.00;;;4.68;;
33268;SDS011;19640;50.944;5.260;2023-07-08T03:11:03;5.90;;;4.65;;
33268;SDS011;19640;50.944;5.260;2023-07-08T03:13:30;7.20;;;4.13;;
33268;SDS011;19640;50.944;5.260;2023-07-08T03:15:57;5.05;;;4.25;;
33268;SDS011;19640;50.944;5.260;2023-07-08T03:18:24;9.63;;;4.63;;
33268;SDS011;19640;50.944;5.260;2023-07-08T03:20:52;6.82;;;3.90;;
33268;SDS011;19640;50.944;5.260;2023-07-08T03:23:21;6.80;;;3.10;;
33268;SDS011;19640;50.944;5.260;2023-07-08T03:25:50;6.75;;;4.43;;
33268;SDS011;19640;50.944;5.260;2023-07-08T03:28:17;5.03;;;3.50;;
33268;SDS011;19640;50.944;5.260;2023-07-08T03:30:43;7.22;;;3.80;;
33268;SDS011;19640;50.944;5.260;2023-07-08T03:33:10;7.22;;;3.58;;
33268;SDS011;19640;50.944;5.260;2023-07-08T03:35:37;6.32;;;3.80;;
33268;SDS011;19640;50.944;5.260;2023-07-08T03:38:05;4.97;;;4.03;;
33268;SDS011;19640;50.944;5.260;2023-07-08T03:40:31;6.00;;;4.25;;
33268;SDS011;19640;50.944;5.260;2023-07-08T03:42:57;5.00;;;4.30;;
33268;SDS011;19640;50.944;5.260;2023-07-08T03:45:22;9.60;;;4.43;;
33268;SDS011;19640;50.944;5.260;2023-07-08T03:47:49;8.50;;;4.38;;
33268;SDS011;19640;50.944;5.260;2023-07-08T03:50:19;11.43;;;4.38;;
33268;SDS011;19640;50.944;5.260;2023-07-08T03:52:49;4.43;;;4.03;;
33268;SDS011;19640;50.944;5.260;2023-07-08T03:55:17;5.90;;;4.53;;
33268;SDS011;19640;50.944;5.260;2023-07-08T03:57:42;4.72;;;4.30;;
33268;SDS011;19640;50.944;5.260;2023-07-08T04:00:09;4.32;;;3.50;;
33268;SDS011;19640;50.944;5.260;2023-07-08T04:02:37;4.85;;;3.38;;
33268;SDS011;19640;50.944;5.260;2023-07-08T04:05:04;5.05;;;3.80;;
33268;SDS011;19640;50.944;5.260;2023-07-08T04:07:31;4.70;;;4.22;;
33268;SDS011;19640;50.944;5.260;2023-07-08T04:09:57;9.73;;;4.90;;
33268;SDS011;19640;50.944;5.260;2023-07-08T04:12:22;7.70;;;4.13;;
33268;SDS011;19640;50.944;5.260;2023-07-08T04:14:48;5.47;;;3.95;;
33268;SDS011;19640;50.944;5.260;2023-07-08T04:17:14;6.90;;;4.30;;
33268;SDS011;19640;50.944;5.260;2023-07-08T04:19:40;4.57;;;4.18;;
33268;SDS011;19640;50.944;5.260;2023-07-08T04:22:08;5.53;;;4.60;;
33268;SDS011;19640;50.944;5.260;2023-07-08T04:24:35;4.95;;;4.45;;
33268;SDS011;19640;50.944;5.260;2023-07-08T04:27:01;7.43;;;4.20;;
33268;SDS011;19640;50.944;5.260;2023-07-08T04:29:27;4.68;;;4.20;;
33268;SDS011;19640;50.944;5.260;2023-07-08T04:31:53;6.20;;;4.50;;
33268;SDS011;19640;50.944;5.260;2023-07-08T04:34:19;6.63;;;4.25;;
33268;SDS011;19640;50.944;5.260;2023-07-08T04:36:45;6.65;;;4.90;;
33268;SDS011;19640;50.944;5.260;2023-07-08T04:39:12;6.82;;;3.97;;
33268;SDS011;19640;50.944;5.260;2023-07-08T04:41:38;6.00;;;4.05;;
33268;SDS011;19640;50.944;5.260;2023-07-08T04:44:06;17.58;;;4.70;;
33268;SDS011;19640;50.944;5.260;2023-07-08T04:49:16;4.97;;;4.28;;
33268;SDS011;19640;50.944;5.260;2023-07-08T04:51:42;5.55;;;5.05;;
33268;SDS011;19640;50.944;5.260;2023-07-08T04:54:08;5.70;;;5.20;;
33268;SDS011;19640;50.944;5.260;2023-07-08T04:56:39;5.05;;;4.07;;
33268;SDS011;19640;50.944;5.260;2023-07-08T04:59:16;4.97;;;4.47;;
33268;SDS011;19640;50.944;5.260;2023-07-08T05:01:43;5.50;;;4.22;;
33268;SDS011;19640;50.944;5.260;2023-07-08T05:04:10;8.23;;;4.05;;
33268;SDS011;19640;50.944;5.260;2023-07-08T05:06:38;6.18;;;4.63;;
33268;SDS011;19640;50.944;5.260;2023-07-08T05:09:03;10.07;;;3.92;;
33268;SDS011;19640;50.944;5.260;2023-07-08T05:11:30;5.47;;;3.92;;
33268;SDS011;19640;50.944;5.260;2023-07-08T05:13:56;6.38;;;4.10;;
33268;SDS011;19640;50.944;5.260;2023-07-08T05:16:22;7.07;;;4.57;;
33268;SDS011;19640;50.944;5.260;2023-07-08T05:18:48;4.95;;;4.45;;
33268;SDS011;19640;50.944;5.260;2023-07-08T05:21:14;6.88;;;4.20;;
33268;SDS011;19640;50.944;5.260;2023-07-08T05:23:41;6.35;;;4.15;;
33268;SDS011;19640;50.944;5.260;2023-07-08T05:26:07;4.35;;;3.85;;
33268;SDS011;19640;50.944;5.260;2023-07-08T05:28:33;8.40;;;4.18;;
33268;SDS011;19640;50.944;5.260;2023-07-08T05:30:59;4.55;;;4.15;;
33268;SDS011;19640;50.944;5.260;2023-07-08T05:33:25;4.82;;;4.38;;
33268;SDS011;19640;50.944;5.260;2023-07-08T05:35:52;5.18;;;4.40;;
33268;SDS011;19640;50.944;5.260;2023-07-08T05:38:18;6.05;;;4.82;;
33268;SDS011;19640;50.944;5.260;2023-07-08T05:40:48;7.63;;;4.97;;
33268;SDS011;19640;50.944;5.260;2023-07-08T05:43:21;6.65;;;4.60;;
33268;SDS011;19640;50.944;5.260;2023-07-08T05:45:47;5.15;;;4.53;;
33268;SDS011;19640;50.944;5.260;2023-07-08T05:48:14;5.30;;;4.78;;
33268;SDS011;19640;50.944;5.260;2023-07-08T05:50:40;5.13;;;4.45;;
33268;SDS011;19640;50.944;5.260;2023-07-08T05:53:09;6.13;;;4.60;;
33268;SDS011;19640;50.944;5.260;2023-07-08T05:55:35;5.65;;;5.05;;
33268;SDS011;19640;50.944;5.260;2023-07-08T05:58:00;6.40;;;4.85;;
33268;SDS011;19640;50.944;5.260;2023-07-08T06:00:26;7.72;;;4.40;;
33268;SDS011;19640;50.944;5.260;2023-07-08T06:02:52;6.97;;;5.00;;
33268;SDS011;19640;50.944;5.260;2023-07-08T06:05:18;6.43;;;4.82;;
33268;SDS011;19640;50.944;5.260;2023-07-08T06:07:44;6.88;;;5.07;;
33268;SDS011;19640;50.944;5.260;2023-07-08T06:10:09;7.25;;;5.18;;
33268;SDS011;19640;50.944;5.260;2023-07-08T06:12:35;7.43;;;4.97;;
33268;SDS011;19640;50.944;5.260;2023-07-08T06:15:01;9.90;;;5.82;;
33268;SDS011;19640;50.944;5.260;2023-07-08T06:17:27;6.10;;;5.53;;
33268;SDS011;19640;50.944;5.260;2023-07-08T06:19:52;5.78;;;4.97;;
33268;SDS011;19640;50.944;5.260;2023-07-08T06:22:18;9.93;;;5.90;;
33268;SDS011;19640;50.944;5.260;2023-07-08T06:24:43;6.00;;;5.40;;
33268;SDS011;19640;50.944;5.260;2023-07-08T06:27:09;7.22;;;5.05;;
33268;SDS011;19640;50.944;5.260;2023-07-08T06:29:35;6.70;;;6.00;;
33268;SDS011;19640;50.944;5.260;2023-07-08T06:32:01;6.45;;;5.63;;
33268;SDS011;19640;50.944;5.260;2023-07-08T06:34:27;5.65;;;4.85;;
33268;SDS011;19640;50.944;5.260;2023-07-08T06:36:53;6.10;;;5.47;;
33268;SDS011;19640;50.944;5.260;2023-07-08T06:39:19;7.55;;;5.35;;
33268;SDS011;19640;50.944;5.260;2023-07-08T06:41:45;7.75;;;6.18;;
33268;SDS011;19640;50.944;5.260;2023-07-08T06:44:10;6.95;;;5.90;;
33268;SDS011;19640;50.944;5.260;2023-07-08T06:46:36;6.45;;;5.85;;
33268;SDS011;19640;50.944;5.260;2023-07-08T06:49:03;8.13;;;6.25;;
33268;SDS011;19640;50.944;5.260;2023-07-08T06:51:29;9.25;;;6.22;;
33268;SDS011;19640;50.944;5.260;2023-07-08T06:53:55;8.93;;;6.20;;
33268;SDS011;19640;50.944;5.260;2023-07-08T06:56:20;7.28;;;5.60;;
33268;SDS011;19640;50.944;5.260;2023-07-08T06:58:46;11.10;;;5.60;;
33268;SDS011;19640;50.944;5.260;2023-07-08T07:01:12;6.55;;;5.85;;
33268;SDS011;19640;50.944;5.260;2023-07-08T07:03:38;7.72;;;5.65;;
33268;SDS011;19640;50.944;5.260;2023-07-08T07:06:05;11.43;;;6.07;;
33268;SDS011;19640;50.944;5.260;2023-07-08T07:08:31;6.90;;;6.22;;
33268;SDS011;19640;50.944;5.260;2023-07-08T07:10:56;8.05;;;5.82;;
33268;SDS011;19640;50.944;5.260;2023-07-08T07:13:22;7.90;;;6.30;;
33268;SDS011;19640;50.944;5.260;2023-07-08T07:15:49;11.10;;;6.68;;
33268;SDS011;19640;50.944;5.260;2023-07-08T07:18:14;6.78;;;6.00;;
33268;SDS011;19640;50.944;5.260;2023-07-08T07:20:46;6.40;;;5.80;;
33268;SDS011;19640;50.944;5.260;2023-07-08T07:23:16;7.40;;;5.90;;
33268;SDS011;19640;50.944;5.260;2023-07-08T07:25:42;8.35;;;5.75;;
33268;SDS011;19640;50.944;5.260;2023-07-08T07:28:09;6.05;;;5.45;;
33268;SDS011;19640;50.944;5.260;2023-07-08T07:30:35;7.55;;;5.97;;
33268;SDS011;19640;50.944;5.260;2023-07-08T07:33:00;7.22;;;5.70;;
33268;SDS011;19640;50.944;5.260;2023-07-08T07:35:26;8.77;;;5.95;;
33268;SDS011;19640;50.944;5.260;2023-07-08T07:37:52;7.00;;;5.68;;
33268;SDS011;19640;50.944;5.260;2023-07-08T07:40:18;7.65;;;6.28;;
33268;SDS011;19640;50.944;5.260;2023-07-08T07:42:45;6.78;;;6.18;;
33268;SDS011;19640;50.944;5.260;2023-07-08T07:45:11;7.13;;;6.43;;
33268;SDS011;19640;50.944;5.260;2023-07-08T07:47:38;8.68;;;5.63;;
33268;SDS011;19640;50.944;5.260;2023-07-08T07:50:05;7.15;;;5.57;;
33268;SDS011;19640;50.944;5.260;2023-07-08T07:52:32;6.97;;;5.55;;
33268;SDS011;19640;50.944;5.260;2023-07-08T07:54:58;7.95;;;6.40;;
33268;SDS011;19640;50.944;5.260;2023-07-08T07:57:24;7.93;;;6.25;;
33268;SDS011;19640;50.944;5.260;2023-07-08T07:59:50;7.32;;;6.35;;
33268;SDS011;19640;50.944;5.260;2023-07-08T08:02:16;7.10;;;6.35;;
33268;SDS011;19640;50.944;5.260;2023-07-08T08:04:42;7.30;;;5.70;;
33268;SDS011;19640;50.944;5.260;2023-07-08T08:07:08;11.50;;;6.15;;
33268;SDS011;19640;50.944;5.260;2023-07-08T08:09:35;6.28;;;5.68;;
33268;SDS011;19640;50.944;5.260;2023-07-08T08:12:04;7.90;;;5.78;;
33268;SDS011;19640;50.944;5.260;2023-07-08T08:14:30;10.77;;;6.00;;
33268;SDS011;19640;50.944;5.260;2023-07-08T08:16:56;6.82;;;6.13;;
33268;SDS011;19640;50.944;5.260;2023-07-08T08:19:22;7.15;;;5.40;;
33268;SDS011;19640;50.944;5.260;2023-07-08T08:21:47;8.95;;;5.70;;
33268;SDS011;19640;50.944;5.260;2023-07-08T08:24:13;6.18;;;5.57;;
33268;SDS011;19640;50.944;5.260;2023-07-08T08:26:39;7.30;;;6.30;;
33268;SDS011;19640;50.944;5.260;2023-07-08T08:29:05;6.20;;;5.60;;
33268;SDS011;19640;50.944;5.260;2023-07-08T08:31:31;6.85;;;6.18;;
33268;SDS011;19640;50.944;5.260;2023-07-08T08:33:57;9.90;;;5.88;;
33268;SDS011;19640;50.944;5.260;2023-07-08T08:36:23;7.53;;;5.78;;
33268;SDS011;19640;50.944;5.260;2023-07-08T08:38:49;10.40;;;6.43;;
33268;SDS011;19640;50.944;5.260;2023-07-08T08:41:27;7.95;;;5.85;;
33268;SDS011;19640;50.944;5.260;2023-07-08T08:43:57;9.02;;;5.50;;
33268;SDS011;19640;50.944;5.260;2023-07-08T08:46:28;8.75;;;6.10;;
33268;SDS011;19640;50.944;5.260;2023-07-08T08:49:12;7.47;;;6.32;;
33268;SDS011;19640;50.944;5.260;2023-07-08T08:51:52;7.00;;;6.30;;
33268;SDS011;19640;50.944;5.260;2023-07-08T08:54:19;7.97;;;6.13;;
33268;SDS011;19640;50.944;5.260;2023-07-08T08:56:48;14.98;;;6.28;;
33268;SDS011;19640;50.944;5.260;2023-07-08T08:59:36;6.65;;;5.82;;
33268;SDS011;19640;50.944;5.260;2023-07-08T09:02:18;8.18;;;5.88;;
33268;SDS011;19640;50.944;5.260;2023-07-08T09:04:53;9.27;;;5.90;;
33268;SDS011;19640;50.944;5.260;2023-07-08T09:07:23;8.43;;;6.00;;
33268;SDS011;19640;50.944;5.260;2023-07-08T09:12:29;8.30;;;5.65;;
33268;SDS011;19640;50.944;5.260;2023-07-08T09:14:57;8.90;;;5.45;;
33268;SDS011;19640;50.944;5.260;2023-07-08T09:17:28;6.70;;;5.65;;
33268;SDS011;19640;50.944;5.260;2023-07-08T09:22:32;6.18;;;5.47;;
33268;SDS011;19640;50.944;5.260;2023-07-08T09:28:00;7.20;;;5.97;;
33268;SDS011;19640;50.944;5.260;2023-07-08T09:30:26;9.20;;;5.70;;
33268;SDS011;19640;50.944;5.260;2023-07-08T09:32:54;6.72;;;6.00;;
33268;SDS011;19640;50.944;5.260;2023-07-08T09:35:24;6.20;;;5.57;;
33268;SDS011;19640;50.944;5.260;2023-07-08T09:37:53;8.27;;;5.30;;
33268;SDS011;19640;50.944;5.260;2023-07-08T09:40:31;7.55;;;5.88;;
33268;SDS011;19640;50.944;5.260;2023-07-08T09:43:02;6.35;;;5.05;;
33268;SDS011;19640;50.944;5.260;2023-07-08T09:45:40;8.00;;;5.40;;
33268;SDS011;19640;50.944;5.260;2023-07-08T09:48:19;7.93;;;5.57;;
33268;SDS011;19640;50.944;5.260;2023-07-08T09:50:49;6.80;;;5.68;;
33268;SDS011;19640;50.944;5.260;2023-07-08T09:53:19;5.68;;;5.07;;
33268;SDS011;19640;50.944;5.260;2023-07-08T09:55:45;9.30;;;5.30;;
33268;SDS011;19640;50.944;5.260;2023-07-08T09:58:13;9.02;;;5.47;;
33268;SDS011;19640;50.944;5.260;2023-07-08T10:00:43;6.53;;;5.05;;
33268;SDS011;19640;50.944;5.260;2023-07-08T10:03:21;6.07;;;5.25;;
33268;SDS011;19640;50.944;5.260;2023-07-08T10:05:49;7.00;;;5.30;;
33268;SDS011;19640;50.944;5.260;2023-07-08T10:08:20;6.35;;;5.03;;
33268;SDS011;19640;50.944;5.260;2023-07-08T10:10:58;11.88;;;5.65;;
33268;SDS011;19640;50.944;5.260;2023-07-08T10:13:38;16.17;;;6.10;;
33268;SDS011;19640;50.944;5.260;2023-07-08T10:16:15;7.95;;;5.43;;
33268;SDS011;19640;50.944;5.260;2023-07-08T10:18:50;6.80;;;5.20;;
33268;SDS011;19640;50.944;5.260;2023-07-08T10:26:32;7.25;;;5.90;;
33268;SDS011;19640;50.944;5.260;2023-07-08T10:34:52;5.95;;;5.22;;
33268;SDS011;19640;50.944;5.260;2023-07-08T10:43:03;12.40;;;5.97;;
33268;SDS011;19640;50.944;5.260;2023-07-08T10:48:17;7.70;;;5.05;;
33268;SDS011;19640;50.944;5.260;2023-07-08T10:56:23;5.57;;;5.00;;
33268;SDS011;19640;50.944;5.260;2023-07-08T11:05:26;12.20;;;5.13;;
33268;SDS011;19640;50.944;5.260;2023-07-08T11:10:07;8.43;;;4.78;;
33268;SDS011;19640;50.944;5.260;2023-07-08T11:13:05;6.35;;;5.18;;
33268;SDS011;19640;50.944;5.260;2023-07-08T11:15:45;6.70;;;4.82;;
33268;SDS011;19640;50.944;5.260;2023-07-08T11:21:18;7.38;;;4.78;;
33268;SDS011;19640;50.944;5.260;2023-07-08T11:26:47;6.10;;;4.22;;
33268;SDS011;19640;50.944;5.260;2023-07-08T11:29:25;6.22;;;4.50;;
33268;SDS011;19640;50.944;5.260;2023-07-08T11:32:03;8.23;;;4.50;;
33268;SDS011;19640;50.944;5.260;2023-07-08T11:34:30;6.90;;;5.00;;
33268;SDS011;19640;50.944;5.260;2023-07-08T11:36:58;5.95;;;4.88;;
33268;SDS011;19640;50.944;5.260;2023-07-08T11:43:00;7.25;;;4.70;;
33268;SDS011;19640;50.944;5.260;2023-07-08T11:45:08;5.28;;;4.53;;
33268;SDS011;19640;50.944;5.260;2023-07-08T11:47:50;7.70;;;5.00;;
33268;SDS011;19640;50.944;5.260;2023-07-08T11:50:20;6.43;;;4.85;;
33268;SDS011;19640;50.944;5.260;2023-07-08T11:53:07;11.85;;;5.40;;
33268;SDS011;19640;50.944;5.260;2023-07-08T11:55:38;6.53;;;5.25;;
33268;SDS011;19640;50.944;5.260;2023-07-08T11:58:22;8.23;;;5.47;;
33268;SDS011;19640;50.944;5.260;2023-07-08T12:01:32;7.28;;;5.88;;
33268;SDS011;19640;50.944;5.260;2023-07-08T12:03:49;6.32;;;4.80;;
33268;SDS011;19640;50.944;5.260;2023-07-08T12:08:52;7.47;;;4.30;;
33268;SDS011;19640;50.944;5.260;2023-07-08T12:11:19;5.68;;;5.07;;
33268;SDS011;19640;50.944;5.260;2023-07-08T12:13:57;5.07;;;4.57;;
33268;SDS011;19640;50.944;5.260;2023-07-08T12:16:25;6.30;;;4.47;;
33268;SDS011;19640;50.944;5.260;2023-07-08T12:18:52;7.72;;;4.75;;
33268;SDS011;19640;50.944;5.260;2023-07-08T12:21:19;5.82;;;4.43;;
33268;SDS011;19640;50.944;5.260;2023-07-08T12:23:48;8.13;;;4.60;;
33268;SDS011;19640;50.944;5.260;2023-07-08T12:26:15;7.03;;;4.13;;
33268;SDS011;19640;50.944;5.260;2023-07-08T12:28:41;9.23;;;4.82;;
33268;SDS011;19640;50.944;5.260;2023-07-08T12:31:15;6.95;;;4.75;;
33268;SDS011;19640;50.944;5.260;2023-07-08T12:33:43;6.45;;;4.55;;
33268;SDS011;19640;50.944;5.260;2023-07-08T12:36:10;6.78;;;4.20;;
33268;SDS011;19640;50.944;5.260;2023-07-08T12:38:46;6.63;;;4.63;;
33268;SDS011;19640;50.944;5.260;2023-07-08T12:41:17;12.65;;;4.63;;
33268;SDS011;19640;50.944;5.260;2023-07-08T12:43:44;12.75;;;4.68;;
33268;SDS011;19640;50.944;5.260;2023-07-08T12:46:11;5.15;;;4.20;;
33268;SDS011;19640;50.944;5.260;2023-07-08T12:48:39;8.45;;;5.20;;
33268;SDS011;19640;50.944;5.260;2023-07-08T12:51:11;6.03;;;5.22;;
33268;SDS011;19640;50.944;5.260;2023-07-08T12:53:38;8.55;;;5.07;;
33268;SDS011;19640;50.944;5.260;2023-07-08T12:56:05;6.15;;;4.82;;
33268;SDS011;19640;50.944;5.260;2023-07-08T12:58:32;4.90;;;4.32;;
33268;SDS011;19640;50.944;5.260;2023-07-08T13:01:02;6.15;;;4.97;;
33268;SDS011;19640;50.944;5.260;2023-07-08T13:03:30;5.90;;;3.92;;
33268;SDS011;19640;50.944;5.260;2023-07-08T13:06:03;5.90;;;4.10;;
33268;SDS011;19640;50.944;5.260;2023-07-08T13:08:30;6.72;;;4.57;;
33268;SDS011;19640;50.944;5.260;2023-07-08T13:11:02;8.88;;;5.05;;
33268;SDS011;19640;50.944;5.260;2023-07-08T13:13:35;7.47;;;3.92;;
33268;SDS011;19640;50.944;5.260;2023-07-08T13:16:08;7.88;;;4.35;;
33268;SDS011;19640;50.944;5.260;2023-07-08T13:18:39;4.60;;;3.78;;
33268;SDS011;19640;50.944;5.260;2023-07-08T13:21:06;5.03;;;4.13;;
33268;SDS011;19640;50.944;5.260;2023-07-08T13:23:39;5.07;;;4.15;;
33268;SDS011;19640;50.944;5.260;2023-07-08T13:26:13;6.13;;;4.07;;
33268;SDS011;19640;50.944;5.260;2023-07-08T13:28:44;8.20;;;4.72;;
33268;SDS011;19640;50.944;5.260;2023-07-08T13:31:21;4.28;;;3.58;;
33268;SDS011;19640;50.944;5.260;2023-07-08T13:33:51;8.20;;;4.78;;
33268;SDS011;19640;50.944;5.260;2023-07-08T13:36:23;5.03;;;4.43;;
33268;SDS011;19640;50.944;5.260;2023-07-08T13:38:56;5.97;;;4.82;;
33268;SDS011;19640;50.944;5.260;2023-07-08T13:41:23;6.60;;;4.25;;
33268;SDS011;19640;50.944;5.260;2023-07-08T13:43:49;6.28;;;4.43;;
33268;SDS011;19640;50.944;5.260;2023-07-08T13:49:25;6.03;;;4.30;;
33268;SDS011;19640;50.944;5.260;2023-07-08T13:54:43;4.85;;;4.13;;
33268;SDS011;19640;50.944;5.260;2023-07-08T13:57:16;6.60;;;4.20;;
33268;SDS011;19640;50.944;5.260;2023-07-08T13:59:44;5.88;;;4.28;;
33268;SDS011;19640;50.944;5.260;2023-07-08T14:02:20;7.57;;;4.60;;
33268;SDS011;19640;50.944;5.260;2023-07-08T14:04:48;9.30;;;5.15;;
33268;SDS011;19640;50.944;5.260;2023-07-08T14:07:26;12.93;;;4.65;;
33268;SDS011;19640;50.944;5.260;2023-07-08T14:09:53;6.38;;;4.55;;
33268;SDS011;19640;50.944;5.260;2023-07-08T14:12:20;5.25;;;4.43;;
33268;SDS011;19640;50.944;5.260;2023-07-08T14:14:46;6.68;;;3.63;;
33268;SDS011;19640;50.944;5.260;2023-07-08T14:17:14;5.60;;;4.10;;
33268;SDS011;19640;50.944;5.260;2023-07-08T14:19:45;6.75;;;3.85;;
33268;SDS011;19640;50.944;5.260;2023-07-08T14:24:38;4.63;;;2.90;;
33268;SDS011;19640;50.944;5.260;2023-07-08T14:27:04;5.65;;;3.47;;
33268;SDS011;19640;50.944;5.260;2023-07-08T14:29:35;5.35;;;3.60;;
33268;SDS011;19640;50.944;5.260;2023-07-08T14:32:00;3.80;;;2.67;;
33268;SDS011;19640;50.944;5.260;2023-07-08T14:34:26;5.15;;;3.50;;
33268;SDS011;19640;50.944;5.260;2023-07-08T14:36:52;5.95;;;3.47;;
33268;SDS011;19640;50.944;5.260;2023-07-08T14:39:19;5.45;;;2.88;;
33268;SDS011;19640;50.944;5.260;2023-07-08T14:41:45;4.47;;;3.25;;
33268;SDS011;19640;50.944;5.260;2023-07-08T14:44:23;5.35;;;3.15;;
33268;SDS011;19640;50.944;5.260;2023-07-08T14:46:51;4.05;;;2.55;;
33268;SDS011;19640;50.944;5.260;2023-07-08T14:49:19;5.05;;;2.88;;
33268;SDS011;19640;50.944;5.260;2023-07-08T14:51:46;5.22;;;2.90;;
33268;SDS011;19640;50.944;5.260;2023-07-08T14:54:13;5.10;;;3.30;;
33268;SDS011;19640;50.944;5.260;2023-07-08T14:56:39;4.78;;;3.38;;
33268;SDS011;19640;50.944;5.260;2023-07-08T14:59:06;5.70;;;3.00;;
33268;SDS011;19640;50.944;5.260;2023-07-08T15:01:39;5.80;;;2.83;;
33268;SDS011;19640;50.944;5.260;2023-07-08T15:04:11;3.30;;;2.60;;
33268;SDS011;19640;50.944;5.260;2023-07-08T15:06:38;6.30;;;3.20;;
33268;SDS011;19640;50.944;5.260;2023-07-08T15:09:05;4.55;;;3.00;;
33268;SDS011;19640;50.944;5.260;2023-07-08T15:11:32;3.85;;;3.00;;
33268;SDS011;19640;50.944;5.260;2023-07-08T15:13:58;5.82;;;2.92;;
33268;SDS011;19640;50.944;5.260;2023-07-08T15:16:25;7.20;;;3.38;;
33268;SDS011;19640;50.944;5.260;2023-07-08T15:18:51;5.75;;;3.33;;
33268;SDS011;19640;50.944;5.260;2023-07-08T15:21:17;6.82;;;3.40;;
33268;SDS011;19640;50.944;5.260;2023-07-08T15:23:42;6.32;;;3.17;;
33268;SDS011;19640;50.944;5.260;2023-07-08T15:26:09;10.07;;;3.28;;
33268;SDS011;19640;50.944;5.260;2023-07-08T15:28:43;4.20;;;3.35;;
33268;SDS011;19640;50.944;5.260;2023-07-08T15:31:21;6.28;;;2.95;;
33268;SDS011;19640;50.944;5.260;2023-07-08T15:33:49;9.13;;;2.97;;
33268;SDS011;19640;50.944;5.260;2023-07-08T15:36:16;5.28;;;2.92;;
33268;SDS011;19640;50.944;5.260;2023-07-08T15:38:42;3.85;;;3.10;;
33268;SDS011;19640;50.944;5.260;2023-07-08T15:41:10;4.05;;;3.05;;
33268;SDS011;19640;50.944;5.260;2023-07-08T15:43:52;6.85;;;3.45;;
33268;SDS011;19640;50.944;5.260;2023-07-08T15:46:19;7.93;;;3.95;;
33268;SDS011;19640;50.944;5.260;2023-07-08T15:48:45;7.72;;;3.25;;
33268;SDS011;19640;50.944;5.260;2023-07-08T15:51:15;3.53;;;2.90;;
33268;SDS011;19640;50.944;5.260;2023-07-08T15:53:41;4.20;;;2.90;;
33268;SDS011;19640;50.944;5.260;2023-07-08T15:56:14;7.15;;;2.70;;
33268;SDS011;19640;50.944;5.260;2023-07-08T15:58:42;4.38;;;3.15;;
33268;SDS011;19640;50.944;5.260;2023-07-08T16:01:21;3.80;;;3.15;;
33268;SDS011;19640;50.944;5.260;2023-07-08T16:03:48;3.20;;;2.90;;
33268;SDS011;19640;50.944;5.260;2023-07-08T16:06:14;4.10;;;3.15;;